Time;durP1;ratioP1;P1;durP2;ratioP2;P2;SDS_P1;SDS_P2;PMS_P1;PMS_P2;Temp;Humidity;BMP_temperature;BMP_pressure;BME280_temperature;BME280_humidity;BME280_pressure;Samples;Min_cycle;Max_cycle;Signal;HPM_P1;HPM_P2
2022/06/29 00:02:05;;;;;;;9.85;4.22;;;29.20;99.00;;;;;;4175905;28;20357;-63
2022/06/29 00:04:21;;;;;;;6.88;3.47;;;29.20;98.90;;;;;;4175184;28;20076;-63
2022/06/29 00:06:28;;;;;;;6.32;3.35;;;29.20;98.90;;;;;;4173977;28;20585;-63
2022/06/29 00:08:53;;;;;;;7.68;3.78;;;29.30;98.90;;;;;;4174001;28;20388;-63
2022/06/29 00:11:17;;;;;;;5.38;3.20;;;29.40;99.20;;;;;;4169448;28;20049;-63
2022/06/29 00:13:42;;;;;;;5.43;3.00;;;29.40;98.90;;;;;;4175015;28;20041;-63
2022/06/29 00:16:02;;;;;;;6.53;3.47;;;29.40;98.80;;;;;;4175660;28;20044;-63
2022/06/29 00:18:29;;;;;;;6.47;3.22;;;29.50;98.90;;;;;;4174033;28;20110;-63
2022/06/29 00:20:55;;;;;;;6.78;3.40;;;29.50;98.70;;;;;;4132439;28;20066;-63
2022/06/29 00:23:20;;;;;;;7.25;3.72;;;29.50;98.70;;;;;;4176838;28;20056;-63
2022/06/29 00:25:47;;;;;;;5.75;3.25;;;29.50;98.40;;;;;;4174670;28;20057;-63
2022/06/29 00:28:14;;;;;;;4.55;3.00;;;29.60;98.10;;;;;;4163321;28;20045;-63
2022/06/29 00:30:38;;;;;;;6.88;3.10;;;29.60;97.80;;;;;;4161930;28;20650;-63
2022/06/29 00:33:04;;;;;;;5.15;3.00;;;29.60;97.90;;;;;;4177151;28;20522;-63
2022/06/29 00:35:31;;;;;;;5.45;2.80;;;29.70;97.60;;;;;;4175112;28;20120;-63
2022/06/29 00:37:55;;;;;;;5.95;2.70;;;29.70;97.60;;;;;;4175421;28;20045;-64
2022/06/29 00:40:22;;;;;;;5.20;2.40;;;29.70;97.50;;;;;;4176350;28;20053;-64
2022/06/29 00:42:49;;;;;;;4.85;2.67;;;29.80;97.40;;;;;;4162694;28;20056;-64
2022/06/29 00:45:13;;;;;;;4.43;2.72;;;29.90;97.30;;;;;;4176022;28;20128;-64
2022/06/29 00:47:42;;;;;;;4.13;2.65;;;30.00;97.30;;;;;;4157202;28;20091;-64
2022/06/29 00:50:09;;;;;;;5.45;2.65;;;30.00;97.10;;;;;;4159891;28;20049;-64
2022/06/29 00:52:32;;;;;;;6.00;2.60;;;30.00;96.90;;;;;;4158590;28;20065;-64
2022/06/29 00:55:00;;;;;;;10.65;3.40;;;30.10;96.90;;;;;;4161373;28;20537;-64
2022/06/29 00:57:26;;;;;;;6.05;2.90;;;30.20;97.00;;;;;;4158916;28;20060;-64
2022/06/29 00:59:51;;;;;;;5.57;3.13;;;30.30;96.90;;;;;;4161059;28;20103;-64
2022/06/29 01:02:19;;;;;;;5.18;2.60;;;30.30;96.70;;;;;;4172981;28;20044;-64
2022/06/29 01:04:43;;;;;;;5.18;2.70;;;30.40;96.70;;;;;;4175883;28;20164;-64
2022/06/29 01:07:06;;;;;;;9.35;3.10;;;30.50;96.60;;;;;;4174714;28;20453;-64
2022/06/29 01:09:31;;;;;;;4.35;2.72;;;30.50;96.30;;;;;;4176999;28;20059;-64
2022/06/29 01:11:57;;;;;;;4.97;2.50;;;30.60;96.00;;;;;;4174761;28;20099;-64
2022/06/29 01:14:22;;;;;;;9.43;2.30;;;30.60;95.70;;;;;;4176596;28;20278;-64
2022/06/29 01:16:34;;;;;;;7.28;2.40;;;30.70;95.10;;;;;;4173272;28;20426;-64
2022/06/29 01:19:00;;;;;;;5.25;2.15;;;30.60;95.00;;;;;;4176400;28;20052;-64
2022/06/29 01:21:23;;;;;;;;;;;30.60;95.30;;;;;;4175161;28;20155;-64
2022/06/29 01:23:48;;;;;;;6.53;2.33;;;30.80;95.00;;;;;;4176530;28;20016;-64
2022/06/29 01:26:13;;;;;;;5.03;2.40;;;30.80;95.00;;;;;;4167011;28;20048;-64
2022/06/29 01:28:36;;;;;;;4.95;2.85;;;31.00;94.90;;;;;;4158408;28;20048;-64
2022/06/29 01:31:01;;;;;;;4.47;2.70;;;31.10;95.10;;;;;;4163686;28;20527;-64
2022/06/29 01:33:27;;;;;;;4.82;2.60;;;31.20;94.90;;;;;;4176658;28;20446;-64
2022/06/29 01:35:50;;;;;;;5.80;2.78;;;31.20;94.70;;;;;;4175985;28;20415;-64
2022/06/29 01:38:14;;;;;;;4.78;2.33;;;31.30;94.30;;;;;;4156701;28;20427;-64
2022/06/29 01:40:37;;;;;;;4.35;2.28;;;31.30;94.20;;;;;;4158685;28;20048;-64
2022/06/29 01:43:01;;;;;;;4.78;2.90;;;31.20;94.30;;;;;;4161953;28;20402;-64
2022/06/29 01:45:43;;;;;;;4.50;2.72;;;31.20;93.70;;;;;;4134924;28;20145;-64
2022/06/29 01:48:08;;;;;;;9.73;3.00;;;31.20;93.90;;;;;;4144083;28;20108;-64
2022/06/29 01:50:33;;;;;;;4.93;2.60;;;31.30;93.90;;;;;;4144084;28;20096;-64
2022/06/29 01:52:49;;;;;;;3.78;2.40;;;31.50;93.80;;;;;;4158271;28;20100;-64
2022/06/29 01:55:14;;;;;;;5.00;2.63;;;31.50;93.60;;;;;;4158195;28;20498;-64
2022/06/29 01:57:39;;;;;;;4.00;2.50;;;31.60;93.00;;;;;;4158432;28;20198;-64
2022/06/29 02:00:05;;;;;;;4.82;2.30;;;31.60;92.60;;;;;;4131046;28;20132;-65
2022/06/29 02:02:32;;;;;;;3.70;2.60;;;31.70;92.70;;;;;;4101786;28;20110;-64
2022/06/29 02:04:57;;;;;;;4.15;2.47;;;31.80;92.70;;;;;;4141678;28;20049;-64
2022/06/29 02:07:20;;;;;;;3.53;2.30;;;31.90;92.60;;;;;;4128453;28;20566;-64
2022/06/29 02:09:43;;;;;;;5.20;2.20;;;31.90;92.70;;;;;;4141606;28;20667;-64
2022/06/29 02:12:09;;;;;;;4.63;2.40;;;32.00;92.90;;;;;;4141737;28;20053;-64
2022/06/29 02:14:35;;;;;;;4.53;1.90;;;32.00;92.20;;;;;;4141283;28;20390;-64
2022/06/29 02:16:59;;;;;;;4.68;2.78;;;32.10;91.90;;;;;;4123868;28;20097;-64
2022/06/29 02:19:23;;;;;;;8.65;2.40;;;32.00;91.90;;;;;;4159920;28;20570;-64
2022/06/29 02:21:47;;;;;;;7.05;2.53;;;32.00;92.20;;;;;;4174641;28;20130;-63
2022/06/29 02:23:54;;;;;;;3.83;2.20;;;32.10;92.00;;;;;;4171077;28;20085;-64
2022/06/29 02:25:58;;;;;;;5.82;1.70;;;32.10;91.40;;;;;;4162533;28;20045;-64
2022/06/29 02:28:04;;;;;;;3.28;1.75;;;32.10;91.40;;;;;;4160664;28;20076;-64
2022/06/29 02:35:03;;;;;;;2.40;1.33;;;32.20;91.30;;;;;;4166716;28;20049;-64
2022/06/29 02:37:16;;;;;;;3.97;1.92;;;32.20;91.10;;;;;;4169713;28;20046;-64
2022/06/29 02:39:36;;;;;;;3.28;1.60;;;32.30;91.20;;;;;;4193712;28;20105;-64
2022/06/29 02:42:15;;;;;;;5.75;1.77;;;32.40;91.10;;;;;;4175607;28;20053;-64
2022/06/29 02:44:39;;;;;;;2.30;1.60;;;32.50;91.30;;;;;;4155816;28;20428;-64
2022/06/29 02:46:46;;;;;;;2.78;1.65;;;32.60;91.10;;;;;;4170346;28;20073;-64
2022/06/29 02:48:53;;;;;;;2.10;1.10;;;32.70;90.70;;;;;;4177994;28;20049;-64
2022/06/29 02:51:00;;;;;;;2.60;1.30;;;32.70;90.40;;;;;;4166499;28;20128;-64
2022/06/29 02:53:10;;;;;;;2.53;1.40;;;32.80;90.30;;;;;;4163154;28;20055;-64
2022/06/29 02:55:17;;;;;;;2.45;1.10;;;32.90;90.60;;;;;;4176096;28;20045;-64
2022/06/29 02:57:25;;;;;;;3.15;1.30;;;32.90;90.40;;;;;;4181102;28;20095;-64
2022/06/29 02:59:30;;;;;;;1.95;1.05;;;32.90;90.00;;;;;;4181119;28;20049;-64
2022/06/29 03:01:38;;;;;;;1.85;1.00;;;33.00;90.10;;;;;;4163510;28;20324;-64
2022/06/29 03:03:43;;;;;;;1.85;1.17;;;33.00;89.50;;;;;;4181087;28;20029;-64
2022/06/29 03:05:48;;;;;;;2.85;1.35;;;33.10;89.90;;;;;;4163651;28;20290;-64
2022/06/29 03:07:56;;;;;;;3.20;1.10;;;33.10;88.90;;;;;;4178470;28;20044;-64
2022/06/29 03:10:03;;;;;;;1.83;0.90;;;33.20;88.40;;;;;;4180095;28;20052;-64
2022/06/29 03:12:10;;;;;;;2.10;1.10;;;33.30;88.20;;;;;;4180646;28;20083;-64
2022/06/29 03:14:16;;;;;;;2.42;0.90;;;33.30;88.50;;;;;;4179888;28;20064;-64
2022/06/29 03:16:23;;;;;;;2.08;1.05;;;33.40;88.80;;;;;;4180792;28;20053;-64
2022/06/29 03:18:29;;;;;;;1.95;1.33;;;33.60;89.00;;;;;;4179505;28;20053;-64
2022/06/29 03:20:33;;;;;;;2.08;0.90;;;33.60;88.60;;;;;;4180667;28;20057;-64
2022/06/29 03:22:44;;;;;;;2.97;1.27;;;33.60;87.60;;;;;;4179812;28;20037;-64
2022/06/29 03:24:48;;;;;;;1.80;1.00;;;33.60;87.30;;;;;;4177221;28;20045;-65
2022/06/29 03:26:55;;;;;;;1.70;0.93;;;33.70;87.30;;;;;;4172005;28;20052;-64
2022/06/29 03:29:02;;;;;;;7.00;1.17;;;33.80;87.80;;;;;;4172424;28;20048;-64
2022/06/29 03:31:08;;;;;;;4.07;1.17;;;33.90;87.20;;;;;;4168769;28;20047;-64
2022/06/29 03:33:18;;;;;;;3.75;1.17;;;33.90;87.30;;;;;;4180257;28;20045;-64
2022/06/29 03:35:39;;;;;;;3.05;0.90;;;33.90;87.70;;;;;;4178965;28;20056;-64
2022/06/29 03:37:58;;;;;;;3.53;1.20;;;34.00;87.30;;;;;;4178909;28;20049;-64
2022/06/29 03:40:08;;;;;;;2.03;1.00;;;34.10;87.30;;;;;;4179299;28;20049;-64
2022/06/29 03:42:29;;;;;;;3.55;1.00;;;34.10;86.50;;;;;;4179703;28;20098;-64
2022/06/29 03:44:45;;;;;;;1.98;1.00;;;33.90;83.60;;;;;;4178873;28;20098;-64
2022/06/29 03:47:04;;;;;;;3.60;1.25;;;33.80;83.50;;;;;;4178386;28;20459;-64
2022/06/29 03:49:21;;;;;;;5.18;1.50;;;33.80;84.40;;;;;;4177992;28;20052;-64
2022/06/29 03:51:27;;;;;;;2.45;1.00;;;33.90;84.10;;;;;;4180594;28;20045;-63
2022/06/29 03:53:32;;;;;;;1.88;0.90;;;34.10;83.00;;;;;;4179562;28;20067;-64
2022/06/29 03:55:43;;;;;;;3.45;0.90;;;34.10;82.70;;;;;;4178910;28;20274;-64
2022/06/29 03:58:07;;;;;;;0.85;0.60;;;33.90;83.20;;;;;;4179202;28;20060;-64
2022/06/29 04:00:21;;;;;;;2.17;1.08;;;34.10;82.60;;;;;;4146929;28;20042;-64
2022/06/29 04:02:27;;;;;;;2.25;0.95;;;34.10;82.60;;;;;;4179596;28;20106;-64
2022/06/29 04:04:52;;;;;;;2.45;0.80;;;34.10;82.70;;;;;;4179848;28;20087;-64
2022/06/29 04:06:57;;;;;;;2.20;1.10;;;34.30;82.80;;;;;;4180288;28;20055;-64
2022/06/29 04:09:05;;;;;;;2.50;1.35;;;34.30;83.20;;;;;;4178965;28;20056;-63
2022/06/29 04:13:30;;;;;;;3.72;0.80;;;34.30;82.80;;;;;;4179864;28;20095;-63
2022/06/29 04:15:37;;;;;;;2.08;0.80;;;34.40;83.10;;;;;;4179736;28;20043;-64
2022/06/29 04:17:43;;;;;;;1.98;0.90;;;34.20;82.70;;;;;;4179356;28;20076;-64
2022/06/29 04:19:55;;;;;;;1.65;1.10;;;34.40;82.30;;;;;;4179149;28;20045;-63
2022/06/29 04:22:11;;;;;;;1.00;0.70;;;34.40;81.90;;;;;;4179846;28;20045;-64
2022/06/29 04:24:26;;;;;;;1.63;0.98;;;34.60;83.00;;;;;;4174477;28;20041;-64
2022/06/29 04:26:41;;;;;;;2.13;1.10;;;34.50;82.00;;;;;;4161002;28;20431;-63
2022/06/29 04:28:53;;;;;;;1.30;0.75;;;34.60;82.40;;;;;;4166194;28;20095;-63
2022/06/29 04:31:07;;;;;;;3.80;1.00;;;34.70;81.70;;;;;;4179746;28;20136;-64
2022/06/29 04:33:14;;;;;;;2.88;1.83;;;34.80;81.60;;;;;;4178158;28;20052;-63
2022/06/29 04:35:31;;;;;;;3.00;1.67;;;34.90;80.90;;;;;;4179411;28;20053;-63
2022/06/29 04:37:35;;;;;;;2.42;0.82;;;35.00;82.00;;;;;;4178596;28;20053;-62
2022/06/29 04:39:42;;;;;;;3.60;1.13;;;35.10;82.90;;;;;;4179129;28;20049;-62
2022/06/29 04:41:52;;;;;;;1.92;1.05;;;35.10;81.60;;;;;;4178936;28;20061;-63
2022/06/29 04:43:58;;;;;;;2.13;1.00;;;35.10;81.20;;;;;;4177268;28;20044;-63
2022/06/29 04:48:22;;;;;;;1.77;1.10;;;35.10;81.00;;;;;;4177857;28;20045;-63
2022/06/29 04:50:29;;;;;;;2.53;1.20;;;35.30;82.90;;;;;;4179033;28;20072;-64
2022/06/29 04:52:36;;;;;;;1.45;0.90;;;35.40;81.90;;;;;;4179511;28;20053;-64
2022/06/29 04:54:43;;;;;;;2.40;1.23;;;35.50;81.00;;;;;;4160162;28;20131;-64
2022/06/29 04:56:48;;;;;;;4.32;1.20;;;35.50;80.90;;;;;;4161635;28;20455;-64
2022/06/29 04:58:53;;;;;;;1.17;0.90;;;35.30;82.00;;;;;;4178494;28;20076;-63
2022/06/29 05:00:58;;;;;;;2.05;1.02;;;35.30;81.00;;;;;;4177601;28;20041;-63
2022/06/29 05:03:03;;;;;;;1.63;0.85;;;35.20;82.20;;;;;;4177611;28;20454;-63
2022/06/29 05:05:09;;;;;;;2.63;1.20;;;35.20;81.90;;;;;;4178847;28;20091;-64
2022/06/29 05:07:14;;;;;;;1.92;1.38;;;35.50;80.90;;;;;;4179294;28;20047;-64
2022/06/29 05:09:24;;;;;;;1.55;1.08;;;35.40;81.80;;;;;;4179000;28;20358;-63
2022/06/29 05:11:36;;;;;;;5.28;1.30;;;35.60;81.50;;;;;;4179123;28;20060;-63
2022/06/29 05:13:42;;;;;;;4.07;1.90;;;35.40;81.10;;;;;;4178931;28;20049;-63
2022/06/29 05:15:47;;;;;;;2.80;1.08;;;35.40;81.40;;;;;;4177564;28;20044;-63
2022/06/29 05:17:54;;;;;;;4.97;1.10;;;35.30;80.80;;;;;;4179333;28;20553;-63
2022/06/29 05:20:01;;;;;;;1.08;0.60;;;35.30;80.80;;;;;;4179329;28;20049;-64
2022/06/29 05:22:07;;;;;;;2.05;1.02;;;35.50;80.00;;;;;;4178904;28;20048;-63
2022/06/29 05:24:20;;;;;;;2.35;0.75;;;35.40;80.80;;;;;;4178952;28;20153;-63
2022/06/29 05:26:31;;;;;;;1.23;0.90;;;35.50;80.20;;;;;;4178829;28;20087;-63
2022/06/29 05:28:49;;;;;;;2.70;0.68;;;35.30;80.40;;;;;;4178752;28;20103;-63
2022/06/29 05:30:55;;;;;;;1.65;0.70;;;35.60;78.70;;;;;;4176823;28;20045;-63
2022/06/29 05:33:06;;;;;;;1.88;0.73;;;35.70;79.00;;;;;;4178625;28;20438;-64
2022/06/29 05:35:11;;;;;;;1.42;0.60;;;35.90;79.20;;;;;;4178758;28;20041;-63
2022/06/29 05:37:18;;;;;;;1.65;0.60;;;36.00;77.90;;;;;;4178701;28;20049;-63
2022/06/29 05:39:23;;;;;;;2.22;0.63;;;36.00;77.00;;;;;;4177385;28;20127;-63
2022/06/29 05:41:48;;;;;;;2.03;0.65;;;35.90;77.70;;;;;;4177395;28;20053;-62
2022/06/29 05:43:55;;;;;;;1.45;0.70;;;35.80;77.70;;;;;;4177332;28;20044;-62
2022/06/29 05:46:00;;;;;;;0.52;0.50;;;35.60;78.90;;;;;;4178495;28;20110;-63
2022/06/29 05:48:06;;;;;;;1.58;0.40;;;35.70;79.60;;;;;;4178691;28;20037;-63
2022/06/29 05:50:11;;;;;;;1.10;0.50;;;35.60;79.40;;;;;;4161336;28;20570;-64
2022/06/29 05:52:28;;;;;;;2.15;0.70;;;35.70;80.40;;;;;;4178581;28;20103;-65
2022/06/29 05:54:35;;;;;;;1.50;0.60;;;35.90;78.00;;;;;;4178310;28;20053;-64
2022/06/29 05:56:41;;;;;;;1.60;0.50;;;35.80;78.90;;;;;;4177471;28;20037;-64
2022/06/29 05:58:49;;;;;;;0.70;0.50;;;35.40;78.90;;;;;;4178354;28;20049;-64
2022/06/29 06:00:54;;;;;;;0.73;0.45;;;35.40;79.90;;;;;;4177578;28;20052;-65
2022/06/29 06:02:59;;;;;;;5.80;0.75;;;35.60;80.40;;;;;;4177315;28;20053;-65
2022/06/29 06:05:13;;;;;;;2.47;0.73;;;35.80;79.80;;;;;;4177442;28;20418;-64
2022/06/29 06:07:21;;;;;;;3.65;1.85;;;35.90;78.90;;;;;;4177552;28;20049;-64
2022/06/29 06:09:28;;;;;;;1.50;0.60;;;35.80;78.40;;;;;;4179699;28;20123;-64
2022/06/29 06:11:34;;;;;;;2.65;0.77;;;35.80;78.10;;;;;;4164117;28;20433;-64
2022/06/29 06:13:39;;;;;;;0.90;0.68;;;36.00;78.50;;;;;;4181570;28;20499;-64
2022/06/29 06:15:46;;;;;;;2.80;0.70;;;36.20;78.70;;;;;;4181517;28;20139;-64
2022/06/29 06:17:57;;;;;;;;;;;36.20;78.10;;;;;;4180744;28;20044;-64
2022/06/29 06:20:03;;;;;;;1.60;0.63;;;35.90;79.00;;;;;;4181546;28;19967;-64
2022/06/29 06:22:14;;;;;;;2.38;0.70;;;35.80;78.50;;;;;;4180439;28;20131;-65
2022/06/29 06:24:19;;;;;;;2.15;0.68;;;35.80;78.80;;;;;;4181380;28;20526;-64
2022/06/29 06:26:25;;;;;;;0.73;0.60;;;35.70;78.40;;;;;;4181985;28;20037;-64
2022/06/29 06:28:34;;;;;;;1.85;0.65;;;36.00;77.40;;;;;;4181698;28;20123;-64
2022/06/29 06:30:41;;;;;;;2.30;0.50;;;36.10;76.60;;;;;;4181603;28;20049;-64
2022/06/29 06:32:50;;;;;;;1.27;0.60;;;36.20;76.30;;;;;;4181705;28;20095;-64
2022/06/29 06:35:07;;;;;;;2.92;0.60;;;36.10;77.40;;;;;;4181760;28;20124;-64
2022/06/29 06:37:14;;;;;;;0.55;0.50;;;36.10;78.20;;;;;;4164933;28;20128;-64
2022/06/29 06:39:20;;;;;;;1.73;0.50;;;36.30;78.40;;;;;;4179943;28;20119;-64
2022/06/29 06:41:28;;;;;;;0.75;0.40;;;36.50;77.40;;;;;;4180779;28;20102;-64
2022/06/29 06:43:38;;;;;;;1.42;0.57;;;36.70;77.80;;;;;;4179560;28;20128;-64
2022/06/29 06:45:44;;;;;;;1.77;0.60;;;36.80;77.20;;;;;;4181095;28;20098;-64
2022/06/29 06:47:52;;;;;;;1.30;0.50;;;36.80;76.50;;;;;;4181396;28;20074;-64
2022/06/29 06:50:02;;;;;;;1.98;0.65;;;36.50;77.90;;;;;;4181230;28;20041;-64
2022/06/29 06:52:07;;;;;;;2.70;0.57;;;36.70;75.80;;;;;;4180091;28;20037;-64
2022/06/29 06:54:15;;;;;;;0.73;0.50;;;36.70;75.70;;;;;;4180962;28;20093;-64
2022/06/29 06:56:26;;;;;;;1.17;0.45;;;36.90;76.30;;;;;;4181129;28;20126;-64
2022/06/29 06:58:32;;;;;;;3.53;0.90;;;36.90;76.20;;;;;;4180775;28;20047;-64
2022/06/29 07:00:39;;;;;;;1.73;1.10;;;36.80;75.70;;;;;;4181007;28;20071;-64
2022/06/29 07:02:51;;;;;;;1.02;0.70;;;36.80;75.90;;;;;;4148146;28;20044;-64
2022/06/29 07:04:56;;;;;;;2.13;0.50;;;36.90;74.40;;;;;;4193808;28;20565;-64
2022/06/29 07:07:05;;;;;;;1.63;0.40;;;37.00;74.40;;;;;;4197646;28;20041;-64
2022/06/29 07:09:12;;;;;;;1.17;0.50;;;36.90;74.50;;;;;;4191082;28;20041;-64
2022/06/29 07:11:16;;;;;;;0.98;0.50;;;36.80;74.90;;;;;;4180736;28;20063;-64
2022/06/29 07:13:23;;;;;;;2.08;1.13;;;36.80;75.30;;;;;;4165944;28;20508;-64
2022/06/29 07:15:51;;;;;;;1.92;1.17;;;36.90;74.50;;;;;;4159935;28;20103;-64
2022/06/29 07:17:56;;;;;;;1.35;0.75;;;37.00;74.50;;;;;;4169389;28;20053;-64
2022/06/29 07:20:08;;;;;;;1.35;0.70;;;37.20;74.50;;;;;;4169132;28;20037;-64
2022/06/29 07:22:31;;;;;;;1.00;0.63;;;37.20;74.80;;;;;;4167274;28;20048;-64
2022/06/29 07:24:45;;;;;;;3.47;0.80;;;37.00;75.50;;;;;;4168206;28;20148;-64
2022/06/29 07:27:00;;;;;;;0.60;0.50;;;36.80;74.60;;;;;;4174511;28;20575;-64
2022/06/29 07:29:13;;;;;;;2.25;0.70;;;36.90;75.30;;;;;;4176687;28;20489;-64
2022/06/29 07:31:19;;;;;;;1.58;0.60;;;37.00;74.20;;;;;;4165379;28;20056;-64
2022/06/29 07:33:26;;;;;;;1.10;0.70;;;37.10;74.10;;;;;;4164129;28;20053;-64
2022/06/29 07:35:33;;;;;;;3.28;0.52;;;37.30;74.80;;;;;;4191681;28;20055;-64
2022/06/29 07:37:38;;;;;;;0.50;0.40;;;36.90;73.90;;;;;;4163922;28;20056;-64
2022/06/29 07:39:42;;;;;;;1.73;0.40;;;37.00;75.00;;;;;;4175309;28;20146;-64
2022/06/29 07:42:12;;;;;;;2.00;0.50;;;37.00;76.20;;;;;;4161661;28;20046;-64
2022/06/29 07:44:16;;;;;;;1.75;0.40;;;36.70;77.00;;;;;;4149419;28;20124;-64
2022/06/29 07:46:22;;;;;;;1.35;0.50;;;36.70;76.40;;;;;;4147442;28;20373;-64
2022/06/29 07:48:29;;;;;;;0.55;0.30;;;36.50;74.80;;;;;;4158506;28;20038;-64
2022/06/29 07:50:33;;;;;;;2.75;0.68;;;36.60;75.70;;;;;;4161615;28;20049;-64
2022/06/29 07:52:41;;;;;;;3.17;0.57;;;36.70;75.70;;;;;;4160887;28;20081;-63
2022/06/29 07:54:50;;;;;;;2.05;0.50;;;36.80;74.60;;;;;;4133668;28;20053;-64
2022/06/29 07:56:55;;;;;;;2.15;1.10;;;36.70;74.20;;;;;;4130804;28;20549;-63
2022/06/29 07:59:22;;;;;;;1.77;0.80;;;36.80;75.00;;;;;;4144549;28;20128;-63
2022/06/29 08:01:30;;;;;;;0.82;0.60;;;36.70;74.40;;;;;;4160740;28;20104;-63
2022/06/29 08:03:34;;;;;;;1.27;0.57;;;36.80;75.00;;;;;;4138534;28;20413;-64
2022/06/29 08:05:41;;;;;;;2.03;0.68;;;36.90;75.40;;;;;;4147330;28;20395;-64
2022/06/29 08:07:48;;;;;;;0.98;0.60;;;36.70;75.10;;;;;;4093955;28;20501;-63
2022/06/29 08:09:53;;;;;;;1.85;0.75;;;36.70;75.40;;;;;;4159756;28;20056;-63
2022/06/29 08:11:59;;;;;;;0.73;0.38;;;36.60;74.80;;;;;;4153735;28;20100;-64
2022/06/29 08:14:05;;;;;;;1.20;0.60;;;36.50;75.70;;;;;;4176576;28;20045;-63
2022/06/29 08:16:10;;;;;;;1.88;0.73;;;36.70;75.10;;;;;;4166434;28;20095;-63
2022/06/29 08:18:16;;;;;;;1.13;0.50;;;36.80;74.90;;;;;;4167990;28;20099;-64
2022/06/29 08:20:23;;;;;;;1.30;0.60;;;36.90;74.60;;;;;;4176978;28;20072;-63
2022/06/29 08:22:28;;;;;;;0.98;0.50;;;36.70;74.60;;;;;;4172577;28;20037;-64
2022/06/29 08:24:35;;;;;;;1.63;0.40;;;36.60;74.20;;;;;;4172821;28;20056;-64
2022/06/29 08:26:40;;;;;;;1.70;0.50;;;36.60;74.90;;;;;;4178361;28;20055;-63
2022/06/29 08:29:04;;;;;;;1.75;0.55;;;36.80;74.20;;;;;;4162365;28;20060;-63
2022/06/29 08:31:14;;;;;;;2.30;0.60;;;36.90;73.70;;;;;;4168016;28;20186;-63
2022/06/29 08:33:21;;;;;;;1.10;0.50;;;36.90;73.90;;;;;;4175196;28;20044;-64
2022/06/29 08:35:27;;;;;;;1.77;0.50;;;37.10;74.80;;;;;;4163922;28;20073;-64
2022/06/29 08:37:34;;;;;;;3.35;0.68;;;36.90;74.40;;;;;;4166974;28;20034;-63
2022/06/29 08:39:41;;;;;;;1.80;0.70;;;37.00;74.30;;;;;;4144486;28;20046;-68
2022/06/29 08:41:45;;;;;;;1.40;0.77;;;36.90;74.00;;;;;;4161799;28;20061;-69
2022/06/29 08:43:52;;;;;;;1.17;0.45;;;37.00;73.70;;;;;;4179375;28;20080;-68
2022/06/29 08:45:58;;;;;;;0.80;0.70;;;37.10;73.80;;;;;;4163122;28;20045;-68
2022/06/29 08:48:03;;;;;;;1.83;0.73;;;36.90;74.10;;;;;;4163805;28;20049;-68
2022/06/29 08:50:11;;;;;;;2.17;0.60;;;37.00;74.50;;;;;;4161557;28;20060;-68
2022/06/29 08:52:17;;;;;;;3.08;0.60;;;36.90;74.10;;;;;;4178986;28;20083;-68
2022/06/29 08:54:26;;;;;;;1.17;0.65;;;36.90;73.60;;;;;;4178291;28;20573;-68
2022/06/29 08:56:34;;;;;;;1.27;0.70;;;37.00;73.60;;;;;;4179241;28;20052;-68
2022/06/29 08:58:41;;;;;;;2.95;0.50;;;36.90;74.10;;;;;;4179391;28;20116;-69
2022/06/29 09:00:46;;;;;;;1.35;0.40;;;36.80;74.00;;;;;;4177273;28;20052;-68
2022/06/29 09:02:54;;;;;;;1.58;0.60;;;36.80;74.40;;;;;;4145894;28;20456;-68
2022/06/29 09:05:01;;;;;;;1.58;0.30;;;36.80;73.90;;;;;;4145013;28;20049;-68
2022/06/29 09:07:07;;;;;;;2.30;1.70;;;36.50;73.80;;;;;;4179155;28;20033;-68
2022/06/29 09:09:14;;;;;;;21.52;17.42;;;36.50;74.00;;;;;;4161401;28;20077;-68
2022/06/29 09:11:29;;;;;;;2.60;1.60;;;36.60;74.90;;;;;;4162471;28;20423;-69
2022/06/29 09:13:34;;;;;;;2.65;1.20;;;36.70;74.20;;;;;;4179191;28;20128;-68
2022/06/29 09:15:41;;;;;;;4.43;1.17;;;36.60;74.00;;;;;;4161577;28;20436;-68
2022/06/29 09:17:47;;;;;;;5.85;4.43;;;36.50;75.20;;;;;;4177661;28;20388;-68
2022/06/29 09:19:56;;;;;;;2.95;2.65;;;36.70;74.20;;;;;;4177533;28;20045;-68
2022/06/29 09:22:23;;;;;;;1.35;0.95;;;36.80;73.70;;;;;;4169852;28;20057;-69
2022/06/29 09:24:32;;;;;;;3.13;0.60;;;36.90;74.30;;;;;;4169436;28;20041;-69
2022/06/29 09:27:02;;;;;;;2.88;0.77;;;36.50;74.90;;;;;;4176222;28;20449;-68
2022/06/29 09:29:21;;;;;;;1.30;0.80;;;36.60;74.60;;;;;;4175709;28;20128;-68
2022/06/29 09:31:30;;;;;;;2.75;0.80;;;36.50;74.70;;;;;;4172809;28;20128;-68
2022/06/29 09:33:35;;;;;;;0.75;0.40;;;36.60;73.90;;;;;;4170878;28;20032;-68
2022/06/29 09:35:42;;;;;;;0.60;0.52;;;36.70;74.20;;;;;;4177407;28;20071;-68
2022/06/29 09:37:49;;;;;;;4.13;0.90;;;36.80;74.20;;;;;;4147026;28;20140;-68
2022/06/29 09:39:58;;;;;;;1.13;0.90;;;36.90;74.10;;;;;;4162323;28;20538;-69
2022/06/29 09:42:18;;;;;;;1.45;0.70;;;36.90;74.50;;;;;;4174946;28;20092;-69
2022/06/29 09:44:37;;;;;;;1.10;0.50;;;36.70;74.30;;;;;;4177066;28;20465;-68
2022/06/29 09:46:42;;;;;;;2.25;0.73;;;36.50;74.10;;;;;;4178588;28;20131;-68
2022/06/29 09:48:51;;;;;;;1.95;0.65;;;36.40;74.60;;;;;;4177774;28;20083;-69
2022/06/29 09:53:40;;;;;;;7.60;1.95;;;36.70;74.30;;;;;;4161697;28;20049;-68
2022/06/29 09:55:48;;;;;;;2.85;1.00;;;36.50;74.10;;;;;;4161862;28;20057;-67
2022/06/29 09:57:58;;;;;;;4.90;3.58;;;36.40;74.40;;;;;;4162251;28;20107;-68
2022/06/29 10:04:47;;;;;;;3.00;0.70;;;36.40;74.80;;;;;;4156485;28;20145;-69
2022/06/29 10:06:52;;;;;;;4.72;0.90;;;36.30;74.10;;;;;;4133550;28;20090;-71
2022/06/29 10:09:00;;;;;;;3.20;0.90;;;36.30;74.80;;;;;;4176551;28;20052;-69
2022/06/29 10:13:41;;;;;;;1.50;0.60;;;36.30;74.70;;;;;;4145799;28;20046;-69
2022/06/29 10:15:57;;;;;;;1.45;0.70;;;36.20;74.50;;;;;;4145102;28;20301;-70
2022/06/29 10:18:38;;;;;;;1.58;0.80;;;36.10;74.70;;;;;;4149767;28;20077;-70
2022/06/29 10:20:47;;;;;;;2.40;1.60;;;36.00;74.60;;;;;;4145719;28;20056;-70
2022/06/29 10:22:54;;;;;;;6.10;3.47;;;36.10;74.00;;;;;;4144837;28;20049;-70
2022/06/29 10:25:07;;;;;;;11.55;4.90;;;36.10;74.00;;;;;;4160244;28;20132;-70
2022/06/29 10:27:17;;;;;;;4.03;2.70;;;36.20;73.50;;;;;;4144729;28;20042;-70
2022/06/29 10:29:23;;;;;;;2.63;1.13;;;36.10;73.90;;;;;;4175424;28;20076;-70
2022/06/29 10:31:52;;;;;;;1.42;0.75;;;36.00;74.20;;;;;;4177231;28;20048;-70
2022/06/29 10:33:58;;;;;;;3.00;1.00;;;36.00;74.20;;;;;;4177699;28;20519;-70
2022/06/29 10:36:17;;;;;;;5.93;3.33;;;35.90;74.10;;;;;;4175808;28;20127;-70
2022/06/29 10:38:28;;;;;;;;;;;35.90;74.40;;;;;;4175537;28;20057;-70
2022/06/29 10:40:33;;;;;;;5.47;1.58;;;36.00;74.40;;;;;;4162669;28;20589;-68
2022/06/29 10:45:04;;;;;;;9.02;3.00;;;35.80;74.30;;;;;;4160955;28;20480;-70
2022/06/29 10:47:23;;;;;;;5.80;2.17;;;35.90;74.40;;;;;;4160217;28;20038;-70
2022/06/29 10:49:32;;;;;;;4.50;2.20;;;35.90;74.30;;;;;;4160077;28;20467;-70
2022/06/29 10:51:39;;;;;;;3.22;1.90;;;35.90;74.20;;;;;;4144868;28;20046;-70
2022/06/29 10:53:44;;;;;;;5.78;2.10;;;35.90;74.50;;;;;;4164251;28;20057;-70
2022/06/29 10:56:16;;;;;;;2.20;1.17;;;35.90;74.40;;;;;;4161057;28;20089;-70
2022/06/29 10:58:29;;;;;;;3.72;2.38;;;35.90;74.20;;;;;;4173892;28;20096;-70
2022/06/29 11:00:43;;;;;;;2.83;1.35;;;35.80;74.30;;;;;;4164452;28;20099;-70
2022/06/29 11:02:54;;;;;;;2.72;1.55;;;35.80;74.40;;;;;;4179243;28;20059;-70
2022/06/29 11:05:01;;;;;;;3.83;1.25;;;35.70;74.90;;;;;;4179352;28;20444;-70
2022/06/29 11:12:05;;;;;;;8.32;3.83;;;35.70;75.40;;;;;;4169378;28;20049;-71
2022/06/29 11:16:45;;;;;;;4.07;2.28;;;35.50;75.20;;;;;;4161094;28;20041;-71
2022/06/29 11:18:56;;;;;;;2.33;1.30;;;35.50;75.50;;;;;;4145123;28;20049;-70
2022/06/29 11:21:06;;;;;;;5.10;2.00;;;35.40;75.10;;;;;;4146283;28;20065;-70
2022/06/29 11:23:17;;;;;;;4.00;1.52;;;35.40;75.50;;;;;;4169662;28;20045;-70
2022/06/29 11:25:26;;;;;;;2.67;1.65;;;35.40;75.60;;;;;;4160647;28;20465;-67
2022/06/29 11:27:35;;;;;;;6.75;1.80;;;35.30;76.40;;;;;;4158205;28;20535;-67
2022/06/29 11:29:43;;;;;;;5.85;2.80;;;35.30;77.10;;;;;;4160738;28;20048;-71
2022/06/29 11:32:02;;;;;;;5.28;2.38;;;35.30;77.80;;;;;;4142989;28;20060;-70
2022/06/29 11:34:07;;;;;;;10.68;2.63;;;35.20;78.50;;;;;;4176600;28;20479;-70
2022/06/29 11:36:17;;;;;;;7.53;2.45;;;35.20;79.10;;;;;;4160974;28;20049;-70
2022/06/29 11:38:27;;;;;;;4.07;2.43;;;35.10;79.40;;;;;;4161173;28;20094;-70
2022/06/29 11:40:42;;;;;;;2.80;2.05;;;35.10;79.80;;;;;;4160162;28;20694;-70
2022/06/29 11:43:12;;;;;;;8.30;1.83;;;35.00;80.80;;;;;;4160339;28;20466;-71
2022/06/29 11:45:18;;;;;;;6.30;1.90;;;34.90;81.30;;;;;;4143995;28;20049;-70
2022/06/29 11:47:28;;;;;;;10.80;2.70;;;34.80;81.80;;;;;;4149754;28;20068;-69
2022/06/29 11:49:45;;;;;;;3.78;2.13;;;34.70;82.10;;;;;;4176711;28;20037;-69
2022/06/29 11:51:57;;;;;;;6.90;3.47;;;34.80;82.40;;;;;;4177795;28;20155;-70
2022/06/29 11:54:07;;;;;;;8.32;3.95;;;34.80;83.90;;;;;;4175289;28;20412;-70
2022/06/29 11:56:32;;;;;;;10.20;3.83;;;34.70;84.50;;;;;;4176674;28;20492;-71
2022/06/29 11:58:40;;;;;;;9.27;5.13;;;34.70;84.70;;;;;;4156372;28;20042;-71
2022/06/29 12:00:55;;;;;;;9.50;6.38;;;34.70;85.10;;;;;;4167970;28;20516;-70